createdAt,value
2022-12-06T06:03:47.721Z,96.22
2022-12-06T06:08:50.458Z,96.01
2022-12-06T06:13:54.505Z,95.75
2022-12-06T06:18:56.765Z,95.88
2022-12-06T06:23:59.213Z,95.74
2022-12-06T06:29:01.438Z,95.74
2022-12-06T06:34:03.810Z,95.88
2022-12-06T06:39:06.008Z,95.53
2022-12-06T06:44:08.249Z,95.57
2022-12-06T06:49:11.863Z,95.68
2022-12-06T06:54:15.404Z,95.47
2022-12-06T06:59:17.721Z,95.31
2022-12-06T07:04:20.000Z,95.07
2022-12-06T07:09:22.203Z,94.85
2022-12-06T07:14:24.503Z,95.13
2022-12-06T07:19:26.802Z,94.79
2022-12-06T07:24:29.022Z,95.20
2022-12-06T07:29:31.215Z,94.97
2022-12-06T07:34:33.461Z,94.64
2022-12-06T07:39:35.646Z,94.88
2022-12-06T07:45:01.306Z,94.64
2022-12-06T07:50:06.160Z,94.37
2022-12-06T07:55:09.982Z,94.53
2022-12-06T08:00:15.570Z,94.28
2022-12-06T08:05:17.847Z,93.92
2022-12-06T08:10:20.088Z,93.58
2022-12-06T08:15:22.342Z,93.82
2022-12-06T08:20:24.597Z,93.51
2022-12-06T08:25:26.779Z,93.78
2022-12-06T08:30:29.304Z,93.59
2022-12-06T08:35:31.660Z,93.80
2022-12-06T08:40:33.905Z,92.95
2022-12-06T08:45:36.452Z,93.06
2022-12-06T08:50:39.007Z,92.83
2022-12-06T08:55:41.634Z,92.97
2022-12-06T09:00:43.873Z,92.95
2022-12-06T09:05:46.084Z,92.48
2022-12-06T09:10:48.280Z,92.70
2022-12-06T09:15:50.520Z,92.58
2022-12-06T09:20:52.763Z,92.46
2022-12-06T09:25:55.072Z,91.97
2022-12-06T09:30:57.904Z,91.42
2022-12-06T09:36:05.839Z,92.14
2022-12-06T09:41:50.940Z,92.28
2022-12-06T09:47:02.196Z,91.39
2022-12-06T09:52:41.624Z,91.29
2022-12-06T09:57:56.175Z,91.13
2022-12-06T10:02:58.385Z,91.27
2022-12-06T10:08:49.121Z,90.17
2022-12-06T10:14:13.885Z,90.78
2022-12-06T10:19:41.583Z,90.07
2022-12-06T10:25:05.567Z,89.15
2022-12-06T10:30:11.037Z,89.67
2022-12-06T10:35:19.348Z,89.23
2022-12-06T10:40:34.238Z,89.25
2022-12-06T10:46:24.061Z,89.19
2022-12-06T10:51:34.546Z,88.72
2022-12-06T10:56:41.737Z,89.68
2022-12-06T11:01:45.821Z,89.08
2022-12-06T11:06:54.947Z,89.70
2022-12-06T11:11:58.019Z,89.29
2022-12-06T11:17:05.134Z,89.23
2022-12-06T11:22:35.261Z,88.87
2022-12-06T11:27:44.938Z,89.63
2022-12-06T11:32:50.405Z,89.40
2022-12-06T11:38:02.035Z,88.55
2022-12-06T11:43:08.988Z,87.89
2022-12-06T11:48:18.006Z,87.49
2022-12-06T11:53:27.014Z,88.66
2022-12-06T11:59:01.529Z,89.19
2022-12-06T12:04:32.290Z,89.17
2022-12-06T12:10:00.588Z,88.88
2022-12-06T12:15:03.125Z,89.25
2022-12-06T12:20:08.547Z,89.26
2022-12-06T12:25:36.978Z,89.26
2022-12-06T12:30:52.779Z,89.66
2022-12-06T12:36:02.124Z,89.10
2022-12-06T12:41:23.430Z,89.14
2022-12-06T12:46:26.134Z,89.24
2022-12-06T12:51:36.911Z,89.28
2022-12-06T12:56:39.465Z,88.84
2022-12-06T13:02:03.316Z,88.98
2022-12-06T13:07:31.830Z,89.13
2022-12-06T13:12:44.845Z,89.22
2022-12-06T13:18:00.962Z,89.28
2022-12-06T13:23:09.200Z,89.36
2022-12-06T13:28:19.021Z,89.64
2022-12-06T13:33:27.233Z,89.80
2022-12-06T13:38:32.342Z,90.11
2022-12-06T13:43:39.560Z,89.68
2022-12-06T13:49:05.618Z,90.11
2022-12-06T13:54:13.862Z,90.24
2022-12-06T13:59:16.048Z,90.49
2022-12-06T14:04:24.061Z,90.99
2022-12-06T14:09:28.848Z,91.07
2022-12-06T14:14:31.015Z,90.95
2022-12-06T14:19:45.492Z,91.72
2022-12-06T14:25:15.383Z,91.29
2022-12-06T14:30:26.381Z,91.41
2022-12-06T14:35:36.993Z,92.04
2022-12-06T14:41:01.087Z,92.09
2022-12-06T14:46:10.668Z,92.21
2022-12-06T14:51:23.220Z,91.82
2022-12-06T14:56:32.710Z,92.03
2022-12-06T15:01:36.410Z,91.81
2022-12-06T15:06:55.208Z,92.76
2022-12-06T15:12:42.406Z,92.46
2022-12-06T15:17:45.128Z,92.67
2022-12-06T15:22:47.390Z,92.68
2022-12-06T15:27:49.661Z,92.95
2022-12-06T15:32:51.897Z,92.76
2022-12-06T15:37:54.084Z,93.09
2022-12-06T15:43:02.008Z,92.97
2022-12-06T15:48:04.989Z,93.45
2022-12-06T15:53:10.346Z,93.44
2022-12-06T15:58:12.552Z,93.15
2022-12-06T16:03:14.929Z,93.24
2022-12-06T16:08:17.256Z,93.86
2022-12-06T16:13:23.348Z,93.34
2022-12-06T16:18:25.647Z,93.26
2022-12-06T16:24:18.228Z,93.36
2022-12-06T16:29:20.694Z,93.89
2022-12-06T16:34:23.140Z,93.82
2022-12-06T16:39:25.735Z,93.66
2022-12-06T16:44:28.137Z,94.04
2022-12-06T16:49:48.300Z,93.59
2022-12-06T16:54:50.838Z,93.60
2022-12-06T16:59:53.125Z,94.26
2022-12-06T17:04:56.653Z,94.37
2022-12-06T17:09:59.485Z,94.50
2022-12-06T17:15:01.902Z,94.96
2022-12-06T17:20:05.882Z,94.46
2022-12-06T17:25:09.913Z,94.17
2022-12-06T17:30:17.714Z,94.58
2022-12-06T17:35:19.927Z,94.24
2022-12-06T17:40:22.129Z,94.58
2022-12-06T17:45:25.707Z,94.56
2022-12-06T17:50:27.879Z,94.18
2022-12-06T17:55:30.208Z,94.37
2022-12-06T18:00:32.394Z,95.14
2022-12-06T18:05:34.627Z,94.33
2022-12-06T18:10:36.800Z,94.72
2022-12-06T18:15:39.093Z,95.16
2022-12-06T18:20:43.130Z,94.56
2022-12-06T18:25:45.337Z,95.05
2022-12-06T18:30:47.563Z,94.52
2022-12-06T18:35:53.570Z,95.06
2022-12-06T18:41:08.485Z,94.90
2022-12-06T18:46:21.969Z,94.68
2022-12-06T18:51:27.366Z,94.81
2022-12-06T18:56:32.400Z,94.83
2022-12-06T19:01:37.087Z,95.19
2022-12-06T19:06:39.393Z,95.03
2022-12-06T19:11:44.281Z,94.75
2022-12-06T19:16:49.338Z,95.06
2022-12-06T19:21:54.266Z,95.32
2022-12-06T19:27:00.007Z,95.41
2022-12-06T19:32:02.534Z,94.70
2022-12-06T19:37:04.870Z,95.00
2022-12-06T19:42:25.710Z,94.49
2022-12-06T19:47:27.910Z,94.88
2022-12-06T19:52:31.132Z,95.19
2022-12-06T19:57:33.551Z,94.97
2022-12-06T20:02:36.099Z,94.69
2022-12-06T20:07:38.387Z,95.30
2022-12-06T20:12:40.639Z,95.05
2022-12-06T20:17:42.987Z,94.81
2022-12-06T20:22:45.235Z,95.01
2022-12-06T20:27:53.366Z,94.63
2022-12-06T20:32:55.671Z,94.66
2022-12-06T20:37:57.903Z,94.76
2022-12-06T20:43:00.130Z,95.03
2022-12-06T20:48:02.315Z,95.13
2022-12-06T20:53:04.588Z,94.39
2022-12-06T20:58:06.790Z,94.89
2022-12-06T21:03:09.168Z,95.10
2022-12-06T21:08:11.663Z,95.19
2022-12-06T21:13:13.939Z,94.65
2022-12-06T21:18:19.823Z,94.53
2022-12-06T21:23:22.362Z,95.05
2022-12-06T21:28:24.634Z,94.95
2022-12-06T21:33:27.005Z,94.93
2022-12-06T21:38:32.710Z,94.90
2022-12-06T21:43:36.223Z,95.14
2022-12-06T21:48:39.254Z,94.22
2022-12-06T21:53:41.600Z,95.25
2022-12-06T21:58:44.350Z,94.92
2022-12-06T22:03:51.202Z,94.71
2022-12-06T22:09:02.718Z,94.33
2022-12-06T22:14:05.575Z,95.03
2022-12-06T22:19:07.818Z,94.22
2022-12-06T22:24:10.198Z,94.74
2022-12-06T22:29:12.709Z,94.33
2022-12-06T22:34:14.947Z,94.57
2022-12-06T22:39:18.563Z,94.74
2022-12-06T22:44:20.875Z,94.56
